• Join FlightAware (Why Join?)
  • Login
  • US Flag 
06:33PM EDT


 

Airport Tracker/Info


-or-


 

Live Flight TrackerFlight Track Log ✈ AWE3210 ✈ 25-Nov-2013 ✈ KCLT - KILM

Flight Track Log - Related Links

Times and Time Zones

All times are in EST time to prevent confusion due to time zone crossing. See the AWE3210 flight status page for this flight to view local times or setup timezone preferences in your user account.

Time Position Orientation Groundspeed Altitude Reporting Facility
EST Latitude Longitude Course Direction KTS MPH feet Rate Location/Type
08:42PM 35.1928 -80.9356 182° South 160 184 1,700  Level Atlanta Center
08:42PM 35.1761 -80.9361 182° South 163 188 2,500 2,520 Climbing Atlanta Center
08:44PM 35.1175 -80.8444 128° Southeast 253 291 6,700 2,820 Climbing Atlanta Center
08:45PM 35.0983 -80.7461 103° East 267 307 9,900 2,700 Climbing Atlanta Center
08:46PM 35.0808 -80.6403 101° East 302 348 12,200 2,280 Climbing Atlanta Center
08:48PM 35.0400 -80.4269 103° East 365 420 16,500 2,220 Climbing Washington Center
08:49PM 35.0158 -80.2989 103° East 382 440 18,600 1,200 Climbing Washington Center
08:50PM 34.9897 -80.1656 103° East 387 445 19,000 180 Climbing Washington Center
08:51PM 34.9492 -80.0239 109° East 392 451 19,000  Level Washington Center
08:52PM 34.9100 -79.8975 111° Southeast 398 458 19,000  Level Washington Center
08:53PM 34.8689 -79.7664 111° Southeast 398 458 19,000  Level Washington Center
08:54PM 34.8314 -79.6403 110° East 398 458 19,000  Level Washington Center
08:55PM 34.7919 -79.5144 111° Southeast 398 458 19,000  Level Washington Center
08:56PM 34.7503 -79.3836 111° Southeast 398 458 19,000  Level Washington Center
08:57PM 34.7103 -79.2578 111° Southeast 398 458 19,000  Level Washington Center
08:58PM 34.6683 -79.1297 112° Southeast 398 458 19,000  Level Washington Center
08:59PM 34.6281 -79.0019 111° Southeast 398 458 19,000  Level Washington Center
09:00PM 34.5900 -78.8767 110° East 398 458 19,000 -600 Level Washington Center
09:01PM 34.5475 -78.7514 112° Southeast 398 458 17,900 -1,020 Descending Washington Center
09:02PM 34.5106 -78.6417 112° Southeast 392 451 17,000 -1,200 Descending Washington Center
09:03PM 34.4697 -78.5242 113° Southeast 380 437 15,500 -1,380 Descending Washington Center
09:04PM 34.4325 -78.4197 113° Southeast 365 420 14,300 -1,500 Descending Washington Center
09:05PM 34.3975 -78.3178 113° Southeast 346 398 12,500 -1,680 Descending Washington Center
09:06PM 34.3683 -78.2161 109° East 331 381 11,000 -1,800 Descending Washington Center
09:07PM 34.3392 -78.1247 111° Southeast 309 356 9,000 -2,220 Descending Washington Center
09:08PM 34.2839 -78.0653 138° Southeast 281 323 6,600 -2,940 Descending Washington Center
09:09PM 34.2369 -78.0211 142° Southeast 244 281 3,100 -2,580 Descending Washington Center
09:10PM 34.2233 -77.9706 108° East 213 245 1,400 -1,320 Descending Washington Center
09:11PM 34.2428 -77.9358 56° Northeast 127 146 600 -840 Descending Washington Center